createdAt,value
2023-01-31T00:00:20.941Z,101496.78
2023-01-31T00:02:50.771Z,101499.09
2023-01-31T00:05:20.868Z,101495.34
2023-01-31T00:07:50.672Z,101451.03
2023-01-31T00:10:20.685Z,101489.84
2023-01-31T00:12:52.907Z,101493.69
2023-01-31T00:15:22.684Z,101499.53
2023-01-31T00:17:52.471Z,101455.41
2023-01-31T00:20:22.292Z,101472.13
2023-01-31T00:22:51.885Z,101466.13
2023-01-31T00:25:21.882Z,101449.03
2023-01-31T00:27:54.303Z,101470.56
2023-01-31T00:30:24.161Z,101475.88
2023-01-31T00:32:53.787Z,101483.22
2023-01-31T00:35:23.364Z,101486.59
2023-01-31T00:37:53.004Z,101481.38
2023-01-31T00:40:22.727Z,101477.88
2023-01-31T00:42:54.910Z,101458.22
2023-01-31T00:45:24.567Z,101494.13
2023-01-31T00:47:54.501Z,101494.91
2023-01-31T00:50:24.207Z,101495.06
2023-01-31T00:52:53.869Z,101497.69
2023-01-31T00:55:23.496Z,101485.66
2023-01-31T00:57:55.730Z,101486.44
2023-01-31T01:00:26.991Z,101461.09
2023-01-31T01:02:56.684Z,101511.44
2023-01-31T01:05:26.674Z,101499.53
2023-01-31T01:07:56.352Z,101500.94
2023-01-31T01:10:26.777Z,101503.50
2023-01-31T01:12:58.985Z,101512.34
2023-01-31T01:15:28.642Z,101506.41
2023-01-31T01:17:58.416Z,101513.81
2023-01-31T01:20:28.099Z,101513.81
2023-01-31T01:22:57.826Z,101515.22
2023-01-31T01:25:27.531Z,101484.88
2023-01-31T01:27:59.785Z,101525.41
2023-01-31T01:30:30.063Z,101519.31
2023-01-31T01:32:59.730Z,101498.72
2023-01-31T01:35:29.368Z,101522.81
2023-01-31T01:37:58.971Z,101526.22
2023-01-31T01:40:38.071Z,101517.31
2023-01-31T01:43:12.916Z,101524.47
2023-01-31T01:45:42.564Z,101487.00
2023-01-31T01:48:18.363Z,101535.97
2023-01-31T01:50:51.952Z,101542.56
2023-01-31T01:53:24.523Z,101514.69
2023-01-31T01:55:57.201Z,101536.66
2023-01-31T01:58:33.773Z,101524.81
2023-01-31T02:01:04.257Z,101529.34
2023-01-31T02:03:34.006Z,101496.75
2023-01-31T02:06:07.536Z,101523.94
2023-01-31T02:08:39.466Z,101519.59
2023-01-31T02:11:16.996Z,101546.41
2023-01-31T02:13:50.921Z,101550.53
2023-01-31T02:16:21.108Z,101538.94
2023-01-31T02:18:51.498Z,101544.72
2023-01-31T02:22:07.629Z,101553.06
2023-01-31T02:25:22.970Z,101556.03
2023-01-31T02:28:19.568Z,101551.06
2023-01-31T02:31:13.718Z,101551.84
2023-01-31T02:33:55.519Z,101540.06
2023-01-31T02:36:36.829Z,101538.06
2023-01-31T02:39:17.665Z,101556.38
2023-01-31T02:41:57.911Z,101556.88
2023-01-31T02:44:44.535Z,101537.81
2023-01-31T02:47:27.051Z,101558.19
2023-01-31T02:50:04.630Z,101574.84
2023-01-31T02:52:43.533Z,101564.84
2023-01-31T02:55:32.367Z,101547.19
2023-01-31T02:58:04.802Z,101540.75
2023-01-31T03:00:36.947Z,101553.75
2023-01-31T03:03:08.968Z,101543.00
2023-01-31T03:05:42.820Z,101559.78
2023-01-31T03:08:16.329Z,101537.69
2023-01-31T03:11:02.985Z,101535.78
2023-01-31T03:13:39.917Z,101561.94
2023-01-31T03:16:35.745Z,101533.59
2023-01-31T03:19:13.861Z,101542.50
2023-01-31T03:21:53.172Z,101527.97
2023-01-31T03:24:26.226Z,101531.06
2023-01-31T03:26:58.475Z,101522.81
2023-01-31T03:29:31.365Z,101545.38
2023-01-31T03:32:06.206Z,101523.06
2023-01-31T03:34:36.677Z,101527.84
2023-01-31T03:37:15.602Z,101519.50
2023-01-31T03:39:57.135Z,101506.19
2023-01-31T03:42:34.399Z,101538.75
2023-01-31T03:45:10.139Z,101527.34
2023-01-31T03:47:42.385Z,101503.34
2023-01-31T03:50:18.814Z,101470.34
2023-01-31T03:52:57.686Z,101511.91
2023-01-31T03:55:33.928Z,101504.22
2023-01-31T03:58:08.831Z,101514.44
2023-01-31T04:00:41.976Z,101499.69
2023-01-31T04:03:16.935Z,101498.56
2023-01-31T04:05:49.200Z,101489.22
2023-01-31T04:08:21.938Z,101492.53
2023-01-31T04:11:01.725Z,101486.28
2023-01-31T04:13:31.440Z,101497.66
2023-01-31T04:16:01.112Z,101495.09
2023-01-31T04:18:30.842Z,101491.19
2023-01-31T04:21:00.527Z,101501.97
2023-01-31T04:23:33.368Z,101507.19
2023-01-31T04:26:03.133Z,101458.94
2023-01-31T04:28:33.142Z,101507.13
2023-01-31T04:31:02.903Z,101514.78
2023-01-31T04:33:33.079Z,101503.25
2023-01-31T04:36:02.780Z,101506.22
2023-01-31T04:38:35.224Z,101497.66
2023-01-31T04:41:05.014Z,101468.50
2023-01-31T04:43:34.671Z,101459.28
2023-01-31T04:46:04.423Z,101503.97
2023-01-31T04:48:34.104Z,101509.78
2023-01-31T04:51:03.847Z,101513.06
2023-01-31T04:53:36.356Z,101494.97
2023-01-31T04:56:06.790Z,101510.31
2023-01-31T04:58:36.811Z,101514.63
2023-01-31T05:01:06.512Z,101509.53
2023-01-31T05:03:36.489Z,101490.72
2023-01-31T05:06:06.916Z,101495.91
2023-01-31T05:08:39.149Z,101500.56
2023-01-31T05:11:09.735Z,101500.88
2023-01-31T05:13:40.897Z,101501.06
2023-01-31T05:16:11.684Z,101499.47
2023-01-31T05:18:41.823Z,101498.59
2023-01-31T05:21:11.519Z,101498.06
2023-01-31T05:23:43.772Z,101494.78
2023-01-31T05:26:13.812Z,101471.69
2023-01-31T05:28:43.475Z,101477.09
2023-01-31T05:31:13.432Z,101480.59
2023-01-31T05:33:43.176Z,101484.06
2023-01-31T05:36:12.837Z,101490.63
2023-01-31T05:38:45.458Z,101463.25
2023-01-31T05:41:15.106Z,101435.91
2023-01-31T05:43:44.724Z,101472.25
2023-01-31T05:46:14.341Z,101460.91
2023-01-31T05:48:43.939Z,101469.28
2023-01-31T05:51:13.582Z,101458.16
2023-01-31T05:53:45.830Z,101424.84
2023-01-31T05:56:16.686Z,101467.22
2023-01-31T05:58:50.436Z,101454.06
2023-01-31T06:01:22.100Z,101463.28
2023-01-31T06:03:52.811Z,101453.97
2023-01-31T06:06:23.287Z,101462.06
2023-01-31T06:08:55.491Z,101462.22
2023-01-31T06:11:25.360Z,101451.50
2023-01-31T06:13:57.745Z,101440.19
2023-01-31T06:16:28.581Z,101457.78
2023-01-31T06:18:58.316Z,101456.13
2023-01-31T06:21:28.086Z,101442.47
2023-01-31T06:24:00.344Z,101455.78
2023-01-31T06:26:30.609Z,101413.34
2023-01-31T06:29:00.825Z,101450.91
2023-01-31T06:31:30.941Z,101430.88
2023-01-31T06:34:00.612Z,101446.03
2023-01-31T06:36:30.500Z,101442.03
2023-01-31T06:39:04.144Z,101436.13
2023-01-31T06:41:33.773Z,101441.44
2023-01-31T06:44:03.505Z,101451.28
2023-01-31T06:46:33.475Z,101441.34
2023-01-31T06:49:03.180Z,101445.34
2023-01-31T06:51:33.055Z,101431.66
2023-01-31T06:54:05.377Z,101438.38
2023-01-31T06:56:35.005Z,101419.31
2023-01-31T06:59:04.820Z,101422.88
2023-01-31T07:01:34.626Z,101411.19
2023-01-31T07:04:04.478Z,101420.84
2023-01-31T07:06:34.123Z,101412.06
2023-01-31T07:09:07.440Z,101399.63
2023-01-31T07:11:37.206Z,101403.78
2023-01-31T07:14:06.874Z,101398.47
2023-01-31T07:16:38.211Z,101407.00
2023-01-31T07:19:08.176Z,101405.06
2023-01-31T07:21:38.225Z,101393.25
2023-01-31T07:24:11.438Z,101384.41
2023-01-31T07:26:41.157Z,101386.59
2023-01-31T07:29:12.139Z,101385.81
2023-01-31T07:31:41.910Z,101340.72
2023-01-31T07:34:11.536Z,101370.75
2023-01-31T07:36:41.257Z,101363.41
2023-01-31T07:39:13.743Z,101366.56
2023-01-31T07:41:43.345Z,101359.00
2023-01-31T07:44:13.263Z,101359.88
2023-01-31T07:46:43.609Z,101363.16
2023-01-31T07:49:14.300Z,101343.50
2023-01-31T07:51:43.926Z,101341.34
2023-01-31T07:54:16.257Z,101344.84
2023-01-31T07:56:45.929Z,101349.00
2023-01-31T07:59:17.266Z,101335.06
2023-01-31T08:01:59.465Z,101328.25
2023-01-31T08:04:29.468Z,101332.44
2023-01-31T08:07:03.102Z,101328.94
2023-01-31T08:09:35.517Z,101314.47
2023-01-31T08:12:05.133Z,101320.22
2023-01-31T08:14:34.782Z,101293.56
2023-01-31T08:17:04.469Z,101300.78
2023-01-31T08:19:34.420Z,101307.97
2023-01-31T08:22:04.634Z,101295.28
2023-01-31T08:24:36.883Z,101283.56
2023-01-31T08:27:06.762Z,101289.13
2023-01-31T08:29:36.495Z,101281.66
2023-01-31T08:32:06.168Z,101295.78
2023-01-31T08:34:35.820Z,101256.03
2023-01-31T08:37:05.517Z,101258.63
2023-01-31T08:39:37.754Z,101296.06
2023-01-31T08:42:07.462Z,101285.44
2023-01-31T08:44:38.322Z,101257.25
2023-01-31T08:47:08.036Z,101287.69
2023-01-31T08:49:39.222Z,101284.34
2023-01-31T08:52:08.902Z,101279.00
2023-01-31T08:54:41.325Z,101275.81
2023-01-31T08:57:10.974Z,101256.28
2023-01-31T08:59:40.668Z,101264.75
2023-01-31T09:02:12.623Z,101236.56
2023-01-31T09:04:42.389Z,101261.56
2023-01-31T09:07:11.998Z,101235.34
2023-01-31T09:09:44.159Z,101231.09
2023-01-31T09:12:13.776Z,101243.72
2023-01-31T09:14:43.428Z,101236.91
2023-01-31T09:17:13.465Z,101231.41
2023-01-31T09:19:46.000Z,101230.03
2023-01-31T09:22:15.641Z,101232.63
2023-01-31T09:24:48.173Z,101217.47
2023-01-31T09:27:18.320Z,101226.41
2023-01-31T09:29:47.976Z,101232.75
2023-01-31T09:32:17.599Z,101225.69
2023-01-31T09:34:49.070Z,101233.44
2023-01-31T09:37:18.999Z,101207.66
2023-01-31T09:39:51.284Z,101214.16
2023-01-31T09:42:26.513Z,101184.00
2023-01-31T09:45:02.984Z,101179.25
2023-01-31T09:47:37.018Z,101179.63
2023-01-31T09:50:11.108Z,101197.56
2023-01-31T09:52:41.331Z,101128.84
2023-01-31T09:55:19.122Z,101187.84
2023-01-31T09:57:57.279Z,101173.56
2023-01-31T10:00:34.221Z,101194.75
2023-01-31T10:03:33.641Z,101179.56
2023-01-31T10:06:08.723Z,101193.00
2023-01-31T10:08:47.154Z,101181.50
2023-01-31T10:11:24.780Z,101175.75
2023-01-31T10:13:58.967Z,101144.25
2023-01-31T10:16:36.526Z,101170.16
2023-01-31T10:19:10.731Z,101162.66
2023-01-31T10:21:45.069Z,101155.28
2023-01-31T10:24:18.976Z,101165.75
2023-01-31T10:26:54.017Z,101138.16
2023-01-31T10:29:30.742Z,101156.31
2023-01-31T10:32:05.247Z,101156.31
2023-01-31T10:34:41.770Z,101162.00
2023-01-31T10:37:17.242Z,101154.72
2023-01-31T10:39:50.971Z,101113.91
2023-01-31T10:42:32.699Z,101128.19
2023-01-31T10:45:06.259Z,101139.16
2023-01-31T10:47:38.339Z,101127.84
2023-01-31T10:50:17.416Z,101125.75
2023-01-31T10:52:57.924Z,101126.53
2023-01-31T10:55:46.667Z,101102.63
2023-01-31T10:58:22.636Z,101127.00
2023-01-31T11:00:53.367Z,101110.50
2023-01-31T11:03:23.305Z,101105.66
2023-01-31T11:05:55.071Z,101097.44
2023-01-31T11:08:32.522Z,101105.53
2023-01-31T11:11:08.950Z,101068.09
2023-01-31T11:13:41.884Z,101092.38
2023-01-31T11:16:14.807Z,101043.78
2023-01-31T11:18:48.949Z,101062.97
2023-01-31T11:21:24.835Z,101044.28
2023-01-31T11:23:58.282Z,101061.72
2023-01-31T11:26:31.543Z,101021.97
2023-01-31T11:29:04.877Z,101048.13
2023-01-31T11:31:39.329Z,101067.84
2023-01-31T11:34:23.168Z,101074.38
2023-01-31T11:36:53.446Z,101073.38
2023-01-31T11:39:31.790Z,101077.34
2023-01-31T11:42:09.937Z,101068.00
2023-01-31T11:44:59.887Z,101024.34
2023-01-31T11:47:42.751Z,101071.38
2023-01-31T11:50:24.043Z,101063.16
2023-01-31T11:53:01.357Z,101057.06
2023-01-31T11:55:39.307Z,101031.47
2023-01-31T11:58:20.449Z,101043.16
2023-01-31T12:00:59.521Z,101022.38
2023-01-31T12:03:30.790Z,101019.97
2023-01-31T12:06:05.277Z,101041.03
2023-01-31T12:08:38.366Z,101023.69
2023-01-31T12:11:09.833Z,101028.16
2023-01-31T12:13:49.307Z,101004.22
2023-01-31T12:16:25.627Z,101013.63
2023-01-31T12:19:15.454Z,101008.84
2023-01-31T12:22:02.915Z,101002.25
2023-01-31T12:24:46.847Z,100987.97
2023-01-31T12:27:28.863Z,100955.81
2023-01-31T12:30:22.954Z,101002.53
2023-01-31T12:33:32.235Z,100995.94
2023-01-31T12:36:15.532Z,100991.72
2023-01-31T12:39:00.134Z,100940.47
2023-01-31T12:41:36.124Z,100989.13
2023-01-31T12:44:44.842Z,101005.59
2023-01-31T12:47:34.842Z,101013.25
2023-01-31T12:50:28.811Z,101021.50
2023-01-31T12:53:20.945Z,101018.03
2023-01-31T12:56:01.770Z,101021.13
2023-01-31T12:58:46.047Z,101015.72
2023-01-31T13:01:20.880Z,101001.44
2023-01-31T13:04:15.225Z,101012.94
2023-01-31T13:06:53.605Z,101009.53
2023-01-31T13:09:26.070Z,100982.69
2023-01-31T13:12:02.024Z,100994.78
2023-01-31T13:14:35.786Z,101012.66
2023-01-31T13:17:08.763Z,101011.81
2023-01-31T13:19:44.640Z,101017.66
2023-01-31T13:22:23.250Z,101016.53
2023-01-31T13:25:02.086Z,100992.44
2023-01-31T13:27:38.115Z,100984.47
2023-01-31T13:30:17.430Z,101015.88
2023-01-31T13:32:51.362Z,101007.81
2023-01-31T13:35:27.061Z,101005.16
2023-01-31T13:38:03.394Z,101010.41
2023-01-31T13:40:37.643Z,101006.75
2023-01-31T13:43:15.949Z,100996.53
2023-01-31T13:45:52.742Z,100987.22
2023-01-31T13:48:29.152Z,100973.50
2023-01-31T13:51:04.157Z,100973.16
2023-01-31T13:53:39.593Z,100932.06
2023-01-31T13:56:14.096Z,100969.53
2023-01-31T13:58:46.163Z,100966.00
2023-01-31T14:01:23.075Z,100963.00
2023-01-31T14:04:25.328Z,100971.53
2023-01-31T14:07:01.991Z,100964.72
2023-01-31T14:09:37.419Z,100948.31
2023-01-31T14:12:35.207Z,100961.88
2023-01-31T14:15:13.037Z,100954.72
2023-01-31T14:18:02.761Z,100947.72
2023-01-31T14:20:33.712Z,100958.84
2023-01-31T14:23:35.141Z,100955.72
2023-01-31T14:26:38.820Z,100963.31
2023-01-31T14:29:12.281Z,100953.50
2023-01-31T14:31:43.048Z,100897.16
2023-01-31T14:34:20.295Z,100938.84
2023-01-31T14:37:03.836Z,100936.56
2023-01-31T14:39:58.561Z,100950.59
2023-01-31T14:42:53.604Z,100952.72
2023-01-31T14:45:52.177Z,100937.41
2023-01-31T14:48:38.485Z,100897.81
2023-01-31T14:51:25.311Z,100927.06
2023-01-31T14:54:15.749Z,100938.50
2023-01-31T14:57:04.645Z,100950.75
2023-01-31T14:59:41.273Z,100880.69
2023-01-31T15:02:39.890Z,100943.94
2023-01-31T15:05:15.264Z,100928.22
2023-01-31T15:08:01.669Z,100913.44
2023-01-31T15:10:56.585Z,100944.75
2023-01-31T15:13:47.109Z,100955.22
2023-01-31T15:16:28.527Z,100968.06
2023-01-31T15:19:09.195Z,100955.13
2023-01-31T15:21:44.739Z,100968.31
2023-01-31T15:27:28.583Z,100953.03
2023-01-31T15:30:06.822Z,100935.84
2023-01-31T15:32:55.203Z,100937.06
2023-01-31T15:35:30.568Z,100905.72
2023-01-31T15:38:04.370Z,100901.97
2023-01-31T15:40:34.282Z,100931.88
2023-01-31T15:43:19.769Z,100941.72
2023-01-31T15:45:52.492Z,100935.16
2023-01-31T15:48:25.765Z,100948.28
2023-01-31T15:50:57.688Z,100919.34
2023-01-31T15:53:31.420Z,100939.63
2023-01-31T15:56:05.305Z,100967.38
2023-01-31T15:58:37.503Z,100968.78
2023-01-31T16:01:08.108Z,100943.22
2023-01-31T16:03:44.911Z,100949.09
2023-01-31T16:06:25.503Z,100938.94
2023-01-31T16:09:04.302Z,100975.59
2023-01-31T16:11:36.368Z,100962.44
2023-01-31T16:14:08.716Z,100943.38
2023-01-31T16:16:39.327Z,100918.06
2023-01-31T16:19:30.662Z,100929.69
2023-01-31T16:22:01.182Z,100968.34
2023-01-31T16:24:32.178Z,100972.47
2023-01-31T16:27:04.108Z,100988.41
2023-01-31T16:29:41.894Z,100946.13
2023-01-31T16:32:20.291Z,100976.69
2023-01-31T16:34:58.475Z,101004.56
2023-01-31T16:37:38.165Z,101000.41
2023-01-31T16:40:21.040Z,100977.16
2023-01-31T16:42:50.872Z,100953.78
2023-01-31T16:45:31.803Z,100970.09
2023-01-31T16:48:21.968Z,100980.50
2023-01-31T16:50:56.038Z,100976.16
2023-01-31T16:53:31.712Z,100981.53
2023-01-31T16:56:20.800Z,100981.06
2023-01-31T16:58:53.984Z,100999.06
2023-01-31T17:01:27.215Z,100983.31
2023-01-31T17:04:09.045Z,101007.63
2023-01-31T17:06:41.888Z,101004.03
2023-01-31T17:09:17.047Z,101012.50
2023-01-31T17:11:47.112Z,101006.56
2023-01-31T17:14:16.834Z,100974.50
2023-01-31T17:16:47.088Z,101002.06
2023-01-31T17:19:16.739Z,100997.78
2023-01-31T17:21:50.215Z,100971.38
2023-01-31T17:24:22.675Z,100974.94
2023-01-31T17:26:54.113Z,100995.66
2023-01-31T17:29:26.026Z,101003.25
2023-01-31T17:31:55.690Z,100998.50
2023-01-31T17:34:25.351Z,100999.09
2023-01-31T17:36:57.638Z,100956.19
2023-01-31T17:39:27.256Z,100927.31
2023-01-31T17:41:56.988Z,100947.28
2023-01-31T17:44:26.611Z,101004.25
2023-01-31T17:46:56.312Z,100973.25
2023-01-31T17:49:25.983Z,101004.88
2023-01-31T17:51:59.020Z,100981.25
2023-01-31T17:54:29.274Z,101019.47
2023-01-31T17:56:59.033Z,101021.38
2023-01-31T17:59:28.755Z,100992.91
2023-01-31T18:02:00.507Z,100998.41
2023-01-31T18:04:30.224Z,100981.03
2023-01-31T18:07:02.451Z,101003.44
2023-01-31T18:09:32.081Z,101000.84
2023-01-31T18:12:01.717Z,100999.44
2023-01-31T18:14:31.341Z,100993.50
2023-01-31T18:17:00.998Z,100978.56
2023-01-31T18:19:30.601Z,100959.41
2023-01-31T18:22:02.872Z,101013.78
2023-01-31T18:24:33.908Z,101033.13
2023-01-31T18:27:03.606Z,101019.09
2023-01-31T18:29:33.267Z,101022.03
2023-01-31T18:32:06.305Z,101034.25
2023-01-31T18:34:36.814Z,101006.16
2023-01-31T18:37:15.285Z,100998.41
2023-01-31T18:39:44.910Z,101022.00
2023-01-31T18:42:14.622Z,100950.25
2023-01-31T18:44:44.992Z,101024.72
2023-01-31T18:47:14.823Z,101019.50
2023-01-31T18:49:45.112Z,101024.22
2023-01-31T18:52:17.350Z,101012.09
2023-01-31T18:54:49.129Z,101034.00
2023-01-31T18:57:18.754Z,101039.44
2023-01-31T18:59:48.407Z,101033.84
2023-01-31T19:02:18.080Z,101054.78
2023-01-31T19:04:47.810Z,101018.59
2023-01-31T19:07:20.100Z,101036.59
2023-01-31T19:09:49.720Z,101043.31
2023-01-31T19:12:19.310Z,100957.56
2023-01-31T19:14:48.906Z,101042.19
2023-01-31T19:17:20.464Z,101045.53
2023-01-31T19:19:50.113Z,101055.75
2023-01-31T19:22:22.542Z,101053.06
2023-01-31T19:24:52.257Z,101043.34
2023-01-31T19:27:22.053Z,101062.56
2023-01-31T19:29:51.931Z,101043.94
2023-01-31T19:32:22.584Z,101061.28
2023-01-31T19:34:54.054Z,101083.63
2023-01-31T19:37:26.611Z,101072.50
2023-01-31T19:39:56.413Z,101088.97
2023-01-31T19:42:28.288Z,101069.09
2023-01-31T19:44:58.004Z,101089.22
2023-01-31T19:47:27.649Z,101102.94
2023-01-31T19:49:57.297Z,101091.38
2023-01-31T19:52:32.810Z,101105.56
2023-01-31T19:55:02.422Z,101092.56
2023-01-31T19:57:32.258Z,101099.09
2023-01-31T20:00:01.916Z,101084.31
2023-01-31T20:02:43.133Z,101106.50
2023-01-31T20:05:14.696Z,101112.31
2023-01-31T20:07:46.915Z,101054.38
2023-01-31T20:10:16.635Z,101112.56
2023-01-31T20:12:46.279Z,101102.31
2023-01-31T20:15:15.947Z,101114.97
2023-01-31T20:17:45.682Z,101119.31
2023-01-31T20:20:15.298Z,101082.44
2023-01-31T20:22:47.489Z,101115.38
2023-01-31T20:25:17.237Z,101091.72
2023-01-31T20:27:46.907Z,101112.38
2023-01-31T20:30:19.123Z,101102.56
2023-01-31T20:32:49.131Z,101083.34
2023-01-31T20:35:19.358Z,101091.34
2023-01-31T20:37:51.546Z,101065.25
2023-01-31T20:40:21.657Z,101106.75
2023-01-31T20:42:51.421Z,101081.47
2023-01-31T20:45:21.203Z,101103.59
2023-01-31T20:47:50.811Z,101088.13
2023-01-31T20:50:20.851Z,101102.16
2023-01-31T20:52:54.067Z,101094.63
2023-01-31T20:55:24.619Z,101091.91
2023-01-31T20:57:54.350Z,101071.19
2023-01-31T21:00:24.918Z,101101.28
2023-01-31T21:02:54.906Z,101064.56
2023-01-31T21:05:24.829Z,101098.13
2023-01-31T21:07:57.232Z,101114.03
2023-01-31T21:10:28.820Z,101108.25
2023-01-31T21:12:58.459Z,101109.63
2023-01-31T21:15:28.952Z,101105.47
2023-01-31T21:17:58.992Z,101084.13
2023-01-31T21:20:28.613Z,101086.84
2023-01-31T21:23:00.911Z,101110.13
2023-01-31T21:25:31.466Z,101055.69
2023-01-31T21:28:01.216Z,101109.13
2023-01-31T21:30:31.137Z,101103.03
2023-01-31T21:33:00.942Z,101085.56
2023-01-31T21:35:30.786Z,101076.91
2023-01-31T21:38:03.211Z,101075.84
2023-01-31T21:40:32.961Z,101085.84
2023-01-31T21:43:00.024Z,101098.13
2023-01-31T21:45:42.050Z,101096.53
2023-01-31T21:48:25.964Z,101096.53
2023-01-31T21:50:55.629Z,101075.44
2023-01-31T21:53:29.204Z,101093.19
2023-01-31T21:56:03.935Z,101083.53
2023-01-31T21:58:34.369Z,101089.38
2023-01-31T22:01:08.495Z,101075.72
2023-01-31T22:03:38.896Z,101097.84
2023-01-31T22:06:10.639Z,101078.91
2023-01-31T22:08:43.020Z,101103.13
2023-01-31T22:11:14.069Z,101086.44
2023-01-31T22:13:46.693Z,101109.97
2023-01-31T22:16:17.682Z,101089.19
2023-01-31T22:18:47.570Z,101107.44
2023-01-31T22:21:19.603Z,101091.03
2023-01-31T22:23:53.594Z,101070.97
2023-01-31T22:26:25.947Z,101062.88
2023-01-31T22:28:57.755Z,101090.84
2023-01-31T22:31:28.048Z,101082.97
2023-01-31T22:34:00.198Z,101102.75
2023-01-31T22:36:30.287Z,101101.03
2023-01-31T22:39:02.625Z,101099.63
2023-01-31T22:41:32.300Z,101074.91
2023-01-31T22:44:01.901Z,101086.16
2023-01-31T22:46:32.138Z,101065.63
2023-01-31T22:49:01.809Z,101074.69
2023-01-31T22:51:31.981Z,101085.56
2023-01-31T22:54:04.232Z,101089.00
2023-01-31T22:56:34.652Z,101085.56
2023-01-31T22:59:06.496Z,101087.31
2023-01-31T23:01:38.237Z,101071.63
2023-01-31T23:04:13.368Z,101061.84
2023-01-31T23:06:42.981Z,101090.63
2023-01-31T23:09:15.183Z,101039.22
2023-01-31T23:11:44.790Z,101073.53
2023-01-31T23:14:14.417Z,101089.88
2023-01-31T23:16:56.562Z,101076.03
2023-01-31T23:19:26.180Z,101074.56
2023-01-31T23:21:55.771Z,101076.56
2023-01-31T23:24:27.954Z,101079.84
2023-01-31T23:26:57.760Z,101074.78
2023-01-31T23:29:27.378Z,101068.34
2023-01-31T23:31:57.030Z,101071.09
2023-01-31T23:34:26.841Z,101065.91
2023-01-31T23:36:56.614Z,101069.59
2023-01-31T23:39:28.790Z,101038.09
2023-01-31T23:41:58.381Z,101053.44
2023-01-31T23:44:28.015Z,101056.31
2023-01-31T23:46:57.996Z,101033.66
2023-01-31T23:49:27.626Z,101041.84
2023-01-31T23:51:57.510Z,101047.69
2023-01-31T23:54:29.759Z,101049.56
2023-01-31T23:56:59.364Z,101033.41
2023-01-31T23:59:29.365Z,101035.56
